sensor_id;sensor_type;location;lat;lon;timestamp;temperature;humidity
298;DHT22;133;49.626;9.680;2022-09-09T00:00:38;15.70;86.90
298;DHT22;133;49.626;9.680;2022-09-09T00:03:14;15.80;86.70
298;DHT22;133;49.626;9.680;2022-09-09T00:06:11;15.80;86.50
298;DHT22;133;49.626;9.680;2022-09-09T00:11:05;15.70;87.10
298;DHT22;133;49.626;9.680;2022-09-09T00:13:46;15.70;87.60
298;DHT22;133;49.626;9.680;2022-09-09T00:21:35;15.80;88.70
298;DHT22;133;49.626;9.680;2022-09-09T00:24:08;15.90;89.30
298;DHT22;133;49.626;9.680;2022-09-09T00:31:38;15.90;88.80
298;DHT22;133;49.626;9.680;2022-09-09T00:34:18;15.90;88.30
298;DHT22;133;49.626;9.680;2022-09-09T00:36:45;16.00;88.50
298;DHT22;133;49.626;9.680;2022-09-09T00:39:32;16.10;87.70
298;DHT22;133;49.626;9.680;2022-09-09T00:42:13;16.10;87.60
298;DHT22;133;49.626;9.680;2022-09-09T00:44:58;16.20;87.60
298;DHT22;133;49.626;9.680;2022-09-09T00:47:39;16.30;87.50
298;DHT22;133;49.626;9.680;2022-09-09T00:58:14;16.40;86.90
298;DHT22;133;49.626;9.680;2022-09-09T01:00:52;16.40;87.10
298;DHT22;133;49.626;9.680;2022-09-09T01:03:38;16.40;87.00
298;DHT22;133;49.626;9.680;2022-09-09T01:09:09;16.40;86.60
298;DHT22;133;49.626;9.680;2022-09-09T01:17:04;16.40;87.00
298;DHT22;133;49.626;9.680;2022-09-09T01:22:33;16.30;87.30
298;DHT22;133;49.626;9.680;2022-09-09T01:25:19;16.30;87.30
298;DHT22;133;49.626;9.680;2022-09-09T01:27:48;16.40;87.00
298;DHT22;133;49.626;9.680;2022-09-09T01:30:16;16.40;86.90
298;DHT22;133;49.626;9.680;2022-09-09T01:32:46;16.50;86.60
298;DHT22;133;49.626;9.680;2022-09-09T01:38:07;16.30;86.70
298;DHT22;133;49.626;9.680;2022-09-09T01:40:33;16.20;87.30
298;DHT22;133;49.626;9.680;2022-09-09T01:42:58;16.10;88.00
298;DHT22;133;49.626;9.680;2022-09-09T01:45:24;16.00;89.20
298;DHT22;133;49.626;9.680;2022-09-09T01:47:52;16.10;89.60
298;DHT22;133;49.626;9.680;2022-09-09T01:50:19;16.10;89.60
298;DHT22;133;49.626;9.680;2022-09-09T01:52:48;16.00;89.40
298;DHT22;133;49.626;9.680;2022-09-09T01:55:15;15.90;89.20
298;DHT22;133;49.626;9.680;2022-09-09T02:01:27;15.80;89.50
298;DHT22;133;49.626;9.680;2022-09-09T02:04:03;15.80;89.20
298;DHT22;133;49.626;9.680;2022-09-09T02:06:39;15.90;89.20
298;DHT22;133;49.626;9.680;2022-09-09T02:09:07;15.90;88.90
298;DHT22;133;49.626;9.680;2022-09-09T02:11:35;15.90;88.80
298;DHT22;133;49.626;9.680;2022-09-09T02:14:23;15.90;88.70
298;DHT22;133;49.626;9.680;2022-09-09T02:16:54;15.90;88.30
298;DHT22;133;49.626;9.680;2022-09-09T02:19:23;16.00;88.30
298;DHT22;133;49.626;9.680;2022-09-09T02:21:54;16.00;88.40
298;DHT22;133;49.626;9.680;2022-09-09T02:24:21;16.00;87.80
298;DHT22;133;49.626;9.680;2022-09-09T02:26:50;16.00;87.70
298;DHT22;133;49.626;9.680;2022-09-09T02:29:37;16.00;87.40
298;DHT22;133;49.626;9.680;2022-09-09T02:32:06;16.00;87.50
298;DHT22;133;49.626;9.680;2022-09-09T02:34:36;16.00;87.60
298;DHT22;133;49.626;9.680;2022-09-09T02:37:06;16.10;87.70
298;DHT22;133;49.626;9.680;2022-09-09T02:39:33;16.20;87.50
298;DHT22;133;49.626;9.680;2022-09-09T02:41:59;16.20;87.50
298;DHT22;133;49.626;9.680;2022-09-09T02:44:25;16.20;88.10
298;DHT22;133;49.626;9.680;2022-09-09T02:55:47;16.10;88.70
298;DHT22;133;49.626;9.680;2022-09-09T02:58:15;16.10;88.80
298;DHT22;133;49.626;9.680;2022-09-09T03:00:49;16.10;89.00
298;DHT22;133;49.626;9.680;2022-09-09T03:03:16;16.10;88.70
298;DHT22;133;49.626;9.680;2022-09-09T03:05:44;16.10;89.10
298;DHT22;133;49.626;9.680;2022-09-09T03:08:10;16.10;89.10
298;DHT22;133;49.626;9.680;2022-09-09T03:10:35;16.10;89.30
298;DHT22;133;49.626;9.680;2022-09-09T03:13:03;16.10;89.40
298;DHT22;133;49.626;9.680;2022-09-09T03:15:31;16.20;89.00
298;DHT22;133;49.626;9.680;2022-09-09T03:17:58;16.20;88.70
298;DHT22;133;49.626;9.680;2022-09-09T03:20:25;16.20;89.00
298;DHT22;133;49.626;9.680;2022-09-09T03:22:54;16.20;88.80
298;DHT22;133;49.626;9.680;2022-09-09T03:25:21;16.30;89.00
298;DHT22;133;49.626;9.680;2022-09-09T03:27:49;16.20;88.70
298;DHT22;133;49.626;9.680;2022-09-09T03:30:15;16.30;88.50
298;DHT22;133;49.626;9.680;2022-09-09T03:32:41;16.30;88.40
298;DHT22;133;49.626;9.680;2022-09-09T03:35:07;16.40;88.30
298;DHT22;133;49.626;9.680;2022-09-09T03:37:32;16.30;88.60
298;DHT22;133;49.626;9.680;2022-09-09T03:39:58;16.30;88.80
298;DHT22;133;49.626;9.680;2022-09-09T03:42:25;16.20;88.80
298;DHT22;133;49.626;9.680;2022-09-09T03:44:51;16.20;89.20
298;DHT22;133;49.626;9.680;2022-09-09T03:47:20;16.20;89.00
298;DHT22;133;49.626;9.680;2022-09-09T03:49:47;16.20;88.50
298;DHT22;133;49.626;9.680;2022-09-09T03:52:14;16.20;88.80
298;DHT22;133;49.626;9.680;2022-09-09T03:54:39;16.20;88.80
298;DHT22;133;49.626;9.680;2022-09-09T03:57:09;16.20;89.10
298;DHT22;133;49.626;9.680;2022-09-09T03:59:35;16.20;88.90
298;DHT22;133;49.626;9.680;2022-09-09T04:02:01;16.10;88.60
298;DHT22;133;49.626;9.680;2022-09-09T04:04:27;16.20;89.00
298;DHT22;133;49.626;9.680;2022-09-09T04:06:53;16.20;89.00
298;DHT22;133;49.626;9.680;2022-09-09T04:09:18;16.10;89.00
298;DHT22;133;49.626;9.680;2022-09-09T04:11:44;16.10;89.10
298;DHT22;133;49.626;9.680;2022-09-09T04:14:11;16.10;89.40
298;DHT22;133;49.626;9.680;2022-09-09T04:16:38;16.00;88.60
298;DHT22;133;49.626;9.680;2022-09-09T04:19:04;15.90;88.30
298;DHT22;133;49.626;9.680;2022-09-09T04:21:32;15.90;88.20
298;DHT22;133;49.626;9.680;2022-09-09T04:23:57;15.90;88.20
298;DHT22;133;49.626;9.680;2022-09-09T04:26:23;16.00;88.10
298;DHT22;133;49.626;9.680;2022-09-09T04:28:49;16.00;88.10
298;DHT22;133;49.626;9.680;2022-09-09T04:31:18;16.00;87.80
298;DHT22;133;49.626;9.680;2022-09-09T04:33:45;16.00;87.70
298;DHT22;133;49.626;9.680;2022-09-09T04:36:12;16.10;87.70
298;DHT22;133;49.626;9.680;2022-09-09T04:38:37;16.00;87.70
298;DHT22;133;49.626;9.680;2022-09-09T04:41:04;16.10;87.50
298;DHT22;133;49.626;9.680;2022-09-09T04:43:30;16.20;87.50
298;DHT22;133;49.626;9.680;2022-09-09T04:45:56;16.20;87.40
298;DHT22;133;49.626;9.680;2022-09-09T04:48:22;16.20;87.30
298;DHT22;133;49.626;9.680;2022-09-09T04:53:22;16.40;87.10
298;DHT22;133;49.626;9.680;2022-09-09T04:55:47;16.40;87.00
298;DHT22;133;49.626;9.680;2022-09-09T04:58:14;16.50;86.70
298;DHT22;133;49.626;9.680;2022-09-09T05:00:39;16.40;86.80
298;DHT22;133;49.626;9.680;2022-09-09T05:03:05;16.40;86.80
298;DHT22;133;49.626;9.680;2022-09-09T05:05:32;16.50;86.80
298;DHT22;133;49.626;9.680;2022-09-09T05:08:05;16.50;86.70
298;DHT22;133;49.626;9.680;2022-09-09T05:10:31;16.50;86.50
298;DHT22;133;49.626;9.680;2022-09-09T05:12:57;16.50;86.50
298;DHT22;133;49.626;9.680;2022-09-09T05:15:23;16.50;86.50
298;DHT22;133;49.626;9.680;2022-09-09T05:17:48;16.50;86.50
298;DHT22;133;49.626;9.680;2022-09-09T05:20:14;16.50;86.60
298;DHT22;133;49.626;9.680;2022-09-09T05:22:40;16.50;86.60
298;DHT22;133;49.626;9.680;2022-09-09T05:25:06;16.50;86.60
298;DHT22;133;49.626;9.680;2022-09-09T05:27:33;16.50;86.50
298;DHT22;133;49.626;9.680;2022-09-09T05:29:59;16.50;86.60
298;DHT22;133;49.626;9.680;2022-09-09T05:32:25;16.60;86.30
298;DHT22;133;49.626;9.680;2022-09-09T05:34:51;16.60;86.10
298;DHT22;133;49.626;9.680;2022-09-09T05:37:17;16.60;86.10
298;DHT22;133;49.626;9.680;2022-09-09T05:39:43;16.60;86.20
298;DHT22;133;49.626;9.680;2022-09-09T05:42:09;16.60;86.20
298;DHT22;133;49.626;9.680;2022-09-09T05:44:34;16.60;86.30
298;DHT22;133;49.626;9.680;2022-09-09T05:47:00;16.60;86.40
298;DHT22;133;49.626;9.680;2022-09-09T05:49:26;16.70;86.50
298;DHT22;133;49.626;9.680;2022-09-09T05:51:52;16.70;87.00
298;DHT22;133;49.626;9.680;2022-09-09T05:54:18;16.70;86.70
298;DHT22;133;49.626;9.680;2022-09-09T05:56:44;16.60;86.80
298;DHT22;133;49.626;9.680;2022-09-09T05:59:10;16.60;87.00
298;DHT22;133;49.626;9.680;2022-09-09T06:01:37;16.60;86.80
298;DHT22;133;49.626;9.680;2022-09-09T06:04:06;16.60;86.60
298;DHT22;133;49.626;9.680;2022-09-09T06:06:34;16.50;86.30
298;DHT22;133;49.626;9.680;2022-09-09T06:09:03;16.60;86.60
298;DHT22;133;49.626;9.680;2022-09-09T06:11:32;16.70;86.50
298;DHT22;133;49.626;9.680;2022-09-09T06:13:59;16.70;86.50
298;DHT22;133;49.626;9.680;2022-09-09T06:16:27;16.70;86.60
298;DHT22;133;49.626;9.680;2022-09-09T06:18:54;16.80;86.40
298;DHT22;133;49.626;9.680;2022-09-09T06:21:25;16.80;86.20
298;DHT22;133;49.626;9.680;2022-09-09T06:23:51;16.80;86.20
298;DHT22;133;49.626;9.680;2022-09-09T06:26:23;16.90;85.90
298;DHT22;133;49.626;9.680;2022-09-09T06:28:52;16.90;85.90
298;DHT22;133;49.626;9.680;2022-09-09T06:31:20;16.90;85.70
298;DHT22;133;49.626;9.680;2022-09-09T06:33:50;17.10;85.50
298;DHT22;133;49.626;9.680;2022-09-09T06:36:19;17.10;85.00
298;DHT22;133;49.626;9.680;2022-09-09T06:38:46;17.10;84.80
298;DHT22;133;49.626;9.680;2022-09-09T06:41:13;17.20;84.50
298;DHT22;133;49.626;9.680;2022-09-09T06:43:39;17.20;84.30
298;DHT22;133;49.626;9.680;2022-09-09T06:46:06;17.30;84.10
298;DHT22;133;49.626;9.680;2022-09-09T06:48:33;17.20;84.10
298;DHT22;133;49.626;9.680;2022-09-09T06:51:11;17.20;83.80
298;DHT22;133;49.626;9.680;2022-09-09T06:53:39;17.30;83.60
298;DHT22;133;49.626;9.680;2022-09-09T06:58:39;17.40;83.30
298;DHT22;133;49.626;9.680;2022-09-09T07:01:11;17.50;82.80
298;DHT22;133;49.626;9.680;2022-09-09T07:03:41;17.50;82.70
298;DHT22;133;49.626;9.680;2022-09-09T07:06:08;17.50;82.60
298;DHT22;133;49.626;9.680;2022-09-09T07:08:34;17.60;82.40
298;DHT22;133;49.626;9.680;2022-09-09T07:11:05;17.60;82.10
298;DHT22;133;49.626;9.680;2022-09-09T07:13:31;17.60;82.00
298;DHT22;133;49.626;9.680;2022-09-09T07:16:07;17.60;82.00
298;DHT22;133;49.626;9.680;2022-09-09T07:18:34;17.70;82.00
298;DHT22;133;49.626;9.680;2022-09-09T07:21:00;17.70;81.80
298;DHT22;133;49.626;9.680;2022-09-09T07:23:27;17.80;81.60
298;DHT22;133;49.626;9.680;2022-09-09T07:25:53;17.80;81.60
298;DHT22;133;49.626;9.680;2022-09-09T07:28:20;17.90;81.20
298;DHT22;133;49.626;9.680;2022-09-09T07:31:00;18.00;80.80
298;DHT22;133;49.626;9.680;2022-09-09T07:33:29;17.90;80.60
298;DHT22;133;49.626;9.680;2022-09-09T07:36:13;18.00;80.70
298;DHT22;133;49.626;9.680;2022-09-09T07:38:46;18.10;80.30
298;DHT22;133;49.626;9.680;2022-09-09T07:41:18;18.30;79.70
298;DHT22;133;49.626;9.680;2022-09-09T07:43:45;18.20;80.10
298;DHT22;133;49.626;9.680;2022-09-09T07:46:13;18.30;79.80
298;DHT22;133;49.626;9.680;2022-09-09T07:48:44;18.30;79.90
298;DHT22;133;49.626;9.680;2022-09-09T07:51:15;18.40;79.90
298;DHT22;133;49.626;9.680;2022-09-09T07:53:46;18.50;79.60
298;DHT22;133;49.626;9.680;2022-09-09T07:56:14;18.60;79.30
298;DHT22;133;49.626;9.680;2022-09-09T07:58:45;18.60;79.30
298;DHT22;133;49.626;9.680;2022-09-09T08:01:14;18.60;79.50
298;DHT22;133;49.626;9.680;2022-09-09T08:03:41;18.70;79.30
298;DHT22;133;49.626;9.680;2022-09-09T08:06:08;18.80;79.10
298;DHT22;133;49.626;9.680;2022-09-09T08:08:35;18.80;78.80
298;DHT22;133;49.626;9.680;2022-09-09T08:11:12;18.90;78.70
298;DHT22;133;49.626;9.680;2022-09-09T08:13:41;18.80;79.00
298;DHT22;133;49.626;9.680;2022-09-09T08:16:16;18.70;79.60
298;DHT22;133;49.626;9.680;2022-09-09T08:18:42;18.80;79.50
298;DHT22;133;49.626;9.680;2022-09-09T08:21:16;18.70;79.80
298;DHT22;133;49.626;9.680;2022-09-09T08:23:44;18.70;80.10
298;DHT22;133;49.626;9.680;2022-09-09T08:26:22;18.80;80.00
298;DHT22;133;49.626;9.680;2022-09-09T08:28:52;18.80;79.90
298;DHT22;133;49.626;9.680;2022-09-09T08:31:27;18.90;79.40
298;DHT22;133;49.626;9.680;2022-09-09T08:33:56;18.90;79.40
298;DHT22;133;49.626;9.680;2022-09-09T08:36:27;18.90;79.60
298;DHT22;133;49.626;9.680;2022-09-09T08:38:56;19.00;79.40
298;DHT22;133;49.626;9.680;2022-09-09T08:44:13;19.00;79.80
298;DHT22;133;49.626;9.680;2022-09-09T08:52:37;19.00;79.60
298;DHT22;133;49.626;9.680;2022-09-09T08:55:25;19.10;79.80
298;DHT22;133;49.626;9.680;2022-09-09T08:57:55;19.30;79.70
298;DHT22;133;49.626;9.680;2022-09-09T09:00:28;19.60;78.90
298;DHT22;133;49.626;9.680;2022-09-09T09:11:49;19.20;78.60
298;DHT22;133;49.626;9.680;2022-09-09T09:14:23;19.20;78.80
298;DHT22;133;49.626;9.680;2022-09-09T09:17:19;19.20;78.90
298;DHT22;133;49.626;9.680;2022-09-09T09:19:46;19.40;78.60
298;DHT22;133;49.626;9.680;2022-09-09T09:22:22;19.60;78.50
298;DHT22;133;49.626;9.680;2022-09-09T09:27:52;20.00;76.70
298;DHT22;133;49.626;9.680;2022-09-09T09:30:26;20.10;75.90
298;DHT22;133;49.626;9.680;2022-09-09T09:35:41;20.20;75.30
298;DHT22;133;49.626;9.680;2022-09-09T09:38:33;20.30;75.20
298;DHT22;133;49.626;9.680;2022-09-09T09:41:00;20.50;74.00
298;DHT22;133;49.626;9.680;2022-09-09T09:45:55;20.70;72.90
298;DHT22;133;49.626;9.680;2022-09-09T09:48:23;20.70;72.60
298;DHT22;133;49.626;9.680;2022-09-09T09:50:55;20.60;72.20
298;DHT22;133;49.626;9.680;2022-09-09T09:53:30;20.70;72.70
298;DHT22;133;49.626;9.680;2022-09-09T09:56:00;20.80;72.50
298;DHT22;133;49.626;9.680;2022-09-09T09:58:30;20.90;72.40
298;DHT22;133;49.626;9.680;2022-09-09T10:00:57;21.00;72.00
298;DHT22;133;49.626;9.680;2022-09-09T10:03:36;21.30;72.00
298;DHT22;133;49.626;9.680;2022-09-09T10:06:04;21.60;71.40
298;DHT22;133;49.626;9.680;2022-09-09T10:08:34;21.60;70.60
298;DHT22;133;49.626;9.680;2022-09-09T10:11:15;21.60;70.30
298;DHT22;133;49.626;9.680;2022-09-09T10:14:06;21.80;69.80
298;DHT22;133;49.626;9.680;2022-09-09T10:19:27;21.60;68.50
298;DHT22;133;49.626;9.680;2022-09-09T10:22:27;21.20;69.50
298;DHT22;133;49.626;9.680;2022-09-09T10:35:35;19.20;75.40
298;DHT22;133;49.626;9.680;2022-09-09T10:38:20;19.00;76.60
298;DHT22;133;49.626;9.680;2022-09-09T10:46:15;19.20;77.90
298;DHT22;133;49.626;9.680;2022-09-09T10:57:36;20.70;75.80
298;DHT22;133;49.626;9.680;2022-09-09T11:00:10;21.60;72.60
298;DHT22;133;49.626;9.680;2022-09-09T11:02:40;22.50;69.90
298;DHT22;133;49.626;9.680;2022-09-09T11:08:22;23.90;65.30
298;DHT22;133;49.626;9.680;2022-09-09T11:11:01;24.60;63.60
298;DHT22;133;49.626;9.680;2022-09-09T11:18:58;27.10;60.50
298;DHT22;133;49.626;9.680;2022-09-09T11:21:37;27.80;58.10
298;DHT22;133;49.626;9.680;2022-09-09T11:24:10;28.10;56.30
298;DHT22;133;49.626;9.680;2022-09-09T11:26:44;27.90;56.00
298;DHT22;133;49.626;9.680;2022-09-09T11:30:04;28.20;55.70
298;DHT22;133;49.626;9.680;2022-09-09T11:38:37;25.50;59.70
298;DHT22;133;49.626;9.680;2022-09-09T11:41:07;25.60;61.00
298;DHT22;133;49.626;9.680;2022-09-09T11:43:41;26.20;59.20
298;DHT22;133;49.626;9.680;2022-09-09T11:46:08;26.80;58.30
298;DHT22;133;49.626;9.680;2022-09-09T11:48:35;27.80;55.20
298;DHT22;133;49.626;9.680;2022-09-09T11:51:05;28.10;54.20
298;DHT22;133;49.626;9.680;2022-09-09T11:53:33;27.60;54.30
298;DHT22;133;49.626;9.680;2022-09-09T11:56:10;27.20;55.80
298;DHT22;133;49.626;9.680;2022-09-09T11:59:04;27.40;56.40
298;DHT22;133;49.626;9.680;2022-09-09T12:01:37;27.60;55.30
298;DHT22;133;49.626;9.680;2022-09-09T12:04:15;27.70;54.40
298;DHT22;133;49.626;9.680;2022-09-09T12:09:52;25.70;56.90
298;DHT22;133;49.626;9.680;2022-09-09T12:12:30;24.60;56.40
298;DHT22;133;49.626;9.680;2022-09-09T12:17:28;23.80;60.70
298;DHT22;133;49.626;9.680;2022-09-09T12:20:06;24.30;60.20
298;DHT22;133;49.626;9.680;2022-09-09T12:22:57;24.80;60.60
298;DHT22;133;49.626;9.680;2022-09-09T12:28:47;25.50;57.40
298;DHT22;133;49.626;9.680;2022-09-09T12:33:47;27.10;53.90
298;DHT22;133;49.626;9.680;2022-09-09T12:36:29;27.90;53.40
298;DHT22;133;49.626;9.680;2022-09-09T12:38:59;28.40;50.90
298;DHT22;133;49.626;9.680;2022-09-09T12:41:35;27.90;50.70
298;DHT22;133;49.626;9.680;2022-09-09T12:44:06;28.00;50.50
298;DHT22;133;49.626;9.680;2022-09-09T12:46:36;28.30;48.80
298;DHT22;133;49.626;9.680;2022-09-09T12:49:03;28.10;48.90
298;DHT22;133;49.626;9.680;2022-09-09T12:51:31;28.10;49.60
298;DHT22;133;49.626;9.680;2022-09-09T12:53:58;27.70;49.50
298;DHT22;133;49.626;9.680;2022-09-09T12:56:28;26.70;51.80
298;DHT22;133;49.626;9.680;2022-09-09T12:58:56;26.60;51.70
298;DHT22;133;49.626;9.680;2022-09-09T13:01:31;26.10;52.60
298;DHT22;133;49.626;9.680;2022-09-09T13:03:59;25.70;53.50
298;DHT22;133;49.626;9.680;2022-09-09T13:06:27;24.80;54.80
298;DHT22;133;49.626;9.680;2022-09-09T13:08:54;24.40;55.70
298;DHT22;133;49.626;9.680;2022-09-09T13:11:29;24.00;56.00
298;DHT22;133;49.626;9.680;2022-09-09T13:13:57;23.90;57.00
298;DHT22;133;49.626;9.680;2022-09-09T13:16:27;23.70;56.90
298;DHT22;133;49.626;9.680;2022-09-09T13:18:59;23.30;57.90
298;DHT22;133;49.626;9.680;2022-09-09T13:21:36;23.00;59.50
298;DHT22;133;49.626;9.680;2022-09-09T13:24:21;22.80;59.60
298;DHT22;133;49.626;9.680;2022-09-09T13:27:20;23.00;60.20
298;DHT22;133;49.626;9.680;2022-09-09T13:29:51;23.10;59.60
298;DHT22;133;49.626;9.680;2022-09-09T13:32:21;23.10;59.60
298;DHT22;133;49.626;9.680;2022-09-09T13:34:51;23.10;59.70
298;DHT22;133;49.626;9.680;2022-09-09T13:37:38;23.10;59.80
298;DHT22;133;49.626;9.680;2022-09-09T13:40:05;23.10;59.40
298;DHT22;133;49.626;9.680;2022-09-09T13:42:39;23.00;59.60
298;DHT22;133;49.626;9.680;2022-09-09T13:45:17;22.90;59.60
298;DHT22;133;49.626;9.680;2022-09-09T13:47:43;23.00;58.90
298;DHT22;133;49.626;9.680;2022-09-09T13:50:28;23.10;58.20
298;DHT22;133;49.626;9.680;2022-09-09T13:52:55;23.20;57.60
298;DHT22;133;49.626;9.680;2022-09-09T13:55:25;23.10;57.30
298;DHT22;133;49.626;9.680;2022-09-09T13:58:02;23.20;57.70
298;DHT22;133;49.626;9.680;2022-09-09T14:00:37;23.40;57.40
298;DHT22;133;49.626;9.680;2022-09-09T14:03:02;23.60;56.90
298;DHT22;133;49.626;9.680;2022-09-09T14:05:31;23.70;56.10
298;DHT22;133;49.626;9.680;2022-09-09T14:07:57;23.70;56.30
298;DHT22;133;49.626;9.680;2022-09-09T14:10:23;23.60;56.20
298;DHT22;133;49.626;9.680;2022-09-09T14:12:49;23.90;56.30
298;DHT22;133;49.626;9.680;2022-09-09T14:15:14;24.10;55.70
298;DHT22;133;49.626;9.680;2022-09-09T14:17:40;24.00;55.30
298;DHT22;133;49.626;9.680;2022-09-09T14:20:07;23.80;55.70
298;DHT22;133;49.626;9.680;2022-09-09T14:22:33;23.50;56.40
298;DHT22;133;49.626;9.680;2022-09-09T14:24:59;23.40;57.00
298;DHT22;133;49.626;9.680;2022-09-09T14:27:24;23.00;57.40
298;DHT22;133;49.626;9.680;2022-09-09T14:29:52;22.80;58.20
298;DHT22;133;49.626;9.680;2022-09-09T14:32:18;22.70;58.80
298;DHT22;133;49.626;9.680;2022-09-09T14:34:44;22.70;58.50
298;DHT22;133;49.626;9.680;2022-09-09T14:37:10;22.50;58.80
298;DHT22;133;49.626;9.680;2022-09-09T14:39:36;22.30;59.70
298;DHT22;133;49.626;9.680;2022-09-09T14:42:02;22.20;59.90
298;DHT22;133;49.626;9.680;2022-09-09T14:44:28;22.20;60.20
298;DHT22;133;49.626;9.680;2022-09-09T14:46:53;22.20;59.90
298;DHT22;133;49.626;9.680;2022-09-09T14:49:19;22.00;60.00
298;DHT22;133;49.626;9.680;2022-09-09T14:51:45;21.80;59.90
298;DHT22;133;49.626;9.680;2022-09-09T14:54:11;21.80;60.20
298;DHT22;133;49.626;9.680;2022-09-09T14:56:37;21.80;60.40
298;DHT22;133;49.626;9.680;2022-09-09T14:59:03;21.80;60.90
298;DHT22;133;49.626;9.680;2022-09-09T15:01:30;21.80;61.20
298;DHT22;133;49.626;9.680;2022-09-09T15:03:58;21.80;61.70
298;DHT22;133;49.626;9.680;2022-09-09T15:06:25;21.80;61.80
298;DHT22;133;49.626;9.680;2022-09-09T15:08:52;21.90;61.80
298;DHT22;133;49.626;9.680;2022-09-09T15:11:19;21.70;61.90
298;DHT22;133;49.626;9.680;2022-09-09T15:13:45;21.40;62.50
298;DHT22;133;49.626;9.680;2022-09-09T15:16:18;21.40;63.10
298;DHT22;133;49.626;9.680;2022-09-09T15:18:45;21.40;63.40
298;DHT22;133;49.626;9.680;2022-09-09T15:21:13;21.30;63.50
298;DHT22;133;49.626;9.680;2022-09-09T15:23:39;21.20;63.60
298;DHT22;133;49.626;9.680;2022-09-09T15:26:05;21.10;65.10
298;DHT22;133;49.626;9.680;2022-09-09T15:28:33;21.30;65.80
298;DHT22;133;49.626;9.680;2022-09-09T15:31:06;21.70;64.50
298;DHT22;133;49.626;9.680;2022-09-09T15:33:33;21.90;62.30
298;DHT22;133;49.626;9.680;2022-09-09T15:35:59;22.10;62.00
298;DHT22;133;49.626;9.680;2022-09-09T15:38:25;22.30;60.90
298;DHT22;133;49.626;9.680;2022-09-09T15:40:54;22.20;61.00
298;DHT22;133;49.626;9.680;2022-09-09T15:43:21;22.50;60.60
298;DHT22;133;49.626;9.680;2022-09-09T15:45:53;22.70;60.40
298;DHT22;133;49.626;9.680;2022-09-09T15:48:25;22.80;59.90
298;DHT22;133;49.626;9.680;2022-09-09T15:51:04;22.80;59.90
298;DHT22;133;49.626;9.680;2022-09-09T15:53:30;22.50;60.50
298;DHT22;133;49.626;9.680;2022-09-09T15:55:58;22.50;60.80
298;DHT22;133;49.626;9.680;2022-09-09T15:58:24;22.60;61.00
298;DHT22;133;49.626;9.680;2022-09-09T16:00:50;22.60;60.90
298;DHT22;133;49.626;9.680;2022-09-09T16:03:16;22.80;60.60
298;DHT22;133;49.626;9.680;2022-09-09T16:05:42;22.80;60.10
298;DHT22;133;49.626;9.680;2022-09-09T16:08:08;22.70;60.50
298;DHT22;133;49.626;9.680;2022-09-09T16:10:34;22.50;61.00
298;DHT22;133;49.626;9.680;2022-09-09T16:13:00;22.30;61.80
298;DHT22;133;49.626;9.680;2022-09-09T16:15:25;22.10;62.20
298;DHT22;133;49.626;9.680;2022-09-09T16:17:53;22.10;62.50
298;DHT22;133;49.626;9.680;2022-09-09T16:20:19;21.90;63.00
298;DHT22;133;49.626;9.680;2022-09-09T16:22:45;21.70;63.60
298;DHT22;133;49.626;9.680;2022-09-09T16:25:11;21.60;63.80
298;DHT22;133;49.626;9.680;2022-09-09T16:27:36;21.40;64.40
298;DHT22;133;49.626;9.680;2022-09-09T16:30:03;21.40;64.50
298;DHT22;133;49.626;9.680;2022-09-09T16:32:28;21.30;64.80
298;DHT22;133;49.626;9.680;2022-09-09T16:34:55;21.30;65.30
298;DHT22;133;49.626;9.680;2022-09-09T16:37:20;21.20;65.60
298;DHT22;133;49.626;9.680;2022-09-09T16:39:46;21.20;65.90
298;DHT22;133;49.626;9.680;2022-09-09T16:42:11;21.10;66.40
298;DHT22;133;49.626;9.680;2022-09-09T16:44:37;20.90;66.80
298;DHT22;133;49.626;9.680;2022-09-09T16:47:03;20.80;67.10
298;DHT22;133;49.626;9.680;2022-09-09T16:49:28;20.70;67.50
298;DHT22;133;49.626;9.680;2022-09-09T16:51:57;20.70;67.60
298;DHT22;133;49.626;9.680;2022-09-09T16:54:23;20.60;67.70
298;DHT22;133;49.626;9.680;2022-09-09T16:56:50;20.70;67.90
298;DHT22;133;49.626;9.680;2022-09-09T16:59:18;20.70;67.80
298;DHT22;133;49.626;9.680;2022-09-09T17:01:46;20.60;68.00
298;DHT22;133;49.626;9.680;2022-09-09T17:04:14;20.40;68.40
298;DHT22;133;49.626;9.680;2022-09-09T17:06:41;20.30;68.60
298;DHT22;133;49.626;9.680;2022-09-09T17:09:09;20.30;68.70
298;DHT22;133;49.626;9.680;2022-09-09T17:11:36;20.10;69.10
298;DHT22;133;49.626;9.680;2022-09-09T17:14:02;20.10;69.30
298;DHT22;133;49.626;9.680;2022-09-09T17:16:31;20.10;69.30
298;DHT22;133;49.626;9.680;2022-09-09T17:18:57;20.20;69.10
298;DHT22;133;49.626;9.680;2022-09-09T17:21:25;20.20;69.20
298;DHT22;133;49.626;9.680;2022-09-09T17:23:51;20.20;69.40
298;DHT22;133;49.626;9.680;2022-09-09T17:26:19;20.20;69.30
298;DHT22;133;49.626;9.680;2022-09-09T17:28:45;20.10;69.90
298;DHT22;133;49.626;9.680;2022-09-09T17:31:12;19.90;70.40
298;DHT22;133;49.626;9.680;2022-09-09T17:33:41;20.00;70.40
298;DHT22;133;49.626;9.680;2022-09-09T17:36:11;20.00;70.70
298;DHT22;133;49.626;9.680;2022-09-09T17:38:38;19.80;71.10
298;DHT22;133;49.626;9.680;2022-09-09T17:41:09;19.80;71.50
298;DHT22;133;49.626;9.680;2022-09-09T17:43:35;19.80;71.50
298;DHT22;133;49.626;9.680;2022-09-09T17:46:09;19.70;71.50
298;DHT22;133;49.626;9.680;2022-09-09T17:48:35;19.70;71.50
298;DHT22;133;49.626;9.680;2022-09-09T17:51:08;19.60;71.60
298;DHT22;133;49.626;9.680;2022-09-09T17:53:43;19.60;71.80
298;DHT22;133;49.626;9.680;2022-09-09T17:56:12;19.50;72.20
298;DHT22;133;49.626;9.680;2022-09-09T17:58:39;19.50;72.50
298;DHT22;133;49.626;9.680;2022-09-09T18:01:10;19.40;72.70
298;DHT22;133;49.626;9.680;2022-09-09T18:03:38;19.30;72.80
298;DHT22;133;49.626;9.680;2022-09-09T18:06:06;19.20;73.10
298;DHT22;133;49.626;9.680;2022-09-09T18:08:33;19.20;73.20
298;DHT22;133;49.626;9.680;2022-09-09T18:11:00;19.20;73.30
298;DHT22;133;49.626;9.680;2022-09-09T18:13:27;19.20;73.30
298;DHT22;133;49.626;9.680;2022-09-09T18:15:53;19.10;73.30
298;DHT22;133;49.626;9.680;2022-09-09T18:18:19;19.10;73.40
298;DHT22;133;49.626;9.680;2022-09-09T18:20:46;18.90;73.80
298;DHT22;133;49.626;9.680;2022-09-09T18:23:21;19.00;73.90
298;DHT22;133;49.626;9.680;2022-09-09T18:25:46;18.90;74.00
298;DHT22;133;49.626;9.680;2022-09-09T18:28:12;18.90;74.10
298;DHT22;133;49.626;9.680;2022-09-09T18:30:38;18.90;74.20
298;DHT22;133;49.626;9.680;2022-09-09T18:33:04;18.90;74.30
298;DHT22;133;49.626;9.680;2022-09-09T18:35:30;18.90;74.20
298;DHT22;133;49.626;9.680;2022-09-09T18:37:56;18.90;74.00
298;DHT22;133;49.626;9.680;2022-09-09T18:40:22;19.00;74.20
298;DHT22;133;49.626;9.680;2022-09-09T18:42:48;19.00;74.00
298;DHT22;133;49.626;9.680;2022-09-09T18:45:14;19.00;74.00
298;DHT22;133;49.626;9.680;2022-09-09T18:47:39;19.00;74.10
298;DHT22;133;49.626;9.680;2022-09-09T18:50:07;18.80;74.50
298;DHT22;133;49.626;9.680;2022-09-09T18:52:32;18.80;74.70
298;DHT22;133;49.626;9.680;2022-09-09T18:54:58;18.70;74.90
298;DHT22;133;49.626;9.680;2022-09-09T18:57:24;18.60;75.10
298;DHT22;133;49.626;9.680;2022-09-09T18:59:50;18.60;75.20
298;DHT22;133;49.626;9.680;2022-09-09T19:02:19;18.60;75.40